Time;durP1;ratioP1;P1;durP2;ratioP2;P2;SDS_P1;SDS_P2;PMS_P1;PMS_P2;Temp;Humidity;BMP_temperature;BMP_pressure;BME280_temperature;BME280_humidity;BME280_pressure;Samples;Min_cycle;Max_cycle;Signal;HPM_P1;HPM_P2
2024/02/07 00:01:52;;;;;;;1.77;1.10;;;;;;;10.37;98.09;99480.66;5005900;28;20280;-73
2024/02/07 00:04:19;;;;;;;2.73;1.37;;;;;;;10.37;97.89;99469.31;5005305;28;20673;-73
2024/02/07 00:06:46;;;;;;;4.70;1.57;;;;;;;10.37;98.07;99469.31;5007965;28;20800;-73
2024/02/07 00:09:12;;;;;;;2.30;1.50;;;;;;;10.36;98.64;99460.63;5003637;28;20198;-73
2024/02/07 00:11:39;;;;;;;2.63;1.33;;;;;;;10.37;97.39;99472.75;5004772;28;20209;-73
2024/02/07 00:14:05;;;;;;;3.83;1.60;;;;;;;10.36;98.95;99460.63;5006663;28;20198;-73
2024/02/07 00:16:31;;;;;;;2.33;1.53;;;;;;;10.35;98.34;99459.13;5008539;28;20988;-73
2024/02/07 00:18:58;;;;;;;1.57;1.30;;;;;;;10.35;97.65;99461.75;5008058;28;20210;-73
2024/02/07 00:21:26;;;;;;;1.73;1.43;;;;;;;10.35;98.24;99459.13;5008623;28;20206;-73
2024/02/07 00:23:52;;;;;;;4.17;1.37;;;;;;;10.35;98.67;99445.94;5005560;28;20218;-72
2024/02/07 00:26:19;;;;;;;4.37;2.30;;;;;;;10.35;98.29;99447.81;5022200;28;20847;-73
2024/02/07 00:28:45;;;;;;;1.83;1.27;;;;;;;10.34;97.45;99447.03;5004883;28;20415;-73
2024/02/07 00:31:11;;;;;;;1.90;1.40;;;;;;;10.34;97.82;99436.50;5024006;28;20237;-73
2024/02/07 00:33:38;;;;;;;2.23;1.27;;;;;;;10.34;97.55;99427.81;5006519;28;20211;-73
2024/02/07 00:36:05;;;;;;;1.67;1.40;;;;;;;10.32;98.55;99424.75;5010320;28;20222;-73
2024/02/07 00:38:32;;;;;;;2.53;1.23;;;;;;;10.32;97.28;99427.41;5007880;28;20223;-72
2024/02/07 00:40:59;;;;;;;2.40;1.33;;;;;;;10.32;97.78;99430.03;5005748;28;20196;-73
2024/02/07 00:43:25;;;;;;;2.47;1.37;;;;;;;10.33;98.70;99427.06;5004915;28;20209;-73
2024/02/07 00:45:52;;;;;;;2.57;1.50;;;;;;;10.34;98.38;99427.81;5006202;28;20210;-72
2024/02/07 00:48:18;;;;;;;3.93;1.47;;;;;;;10.33;97.93;99424.41;5005747;28;20277;-72
2024/02/07 00:50:46;;;;;;;1.73;1.50;;;;;;;10.33;98.50;99413.09;5006721;28;20280;-73
2024/02/07 00:53:12;;;;;;;2.80;1.30;;;;;;;10.31;98.80;99418.72;5005039;28;20190;-72
2024/02/07 00:55:40;;;;;;;3.97;1.90;;;;;;;10.31;98.31;99431.16;5008523;28;20253;-72
2024/02/07 00:58:06;;;;;;;3.67;1.37;;;;;;;10.31;97.19;99405.50;5005998;28;20222;-73
2024/02/07 01:00:33;;;;;;;2.83;1.27;;;;;;;10.30;99.80;99409.28;5005515;28;20965;-72
2024/02/07 01:03:00;;;;;;;1.40;1.30;;;;;;;10.31;98.71;99402.88;5002637;28;20198;-73
2024/02/07 01:05:26;;;;;;;1.50;1.30;;;;;;;10.30;98.54;99398.72;5006356;28;20286;-73
2024/02/07 01:07:52;;;;;;;3.67;1.43;;;;;;;10.31;97.53;99404.78;5006920;28;20218;-73
2024/02/07 01:10:19;;;;;;;1.80;1.30;;;;;;;10.34;98.23;99388.22;5007896;28;20386;-72
2024/02/07 01:12:47;;;;;;;1.20;1.10;;;;;;;10.30;98.95;99390.06;5006624;28;20202;-73
2024/02/07 01:15:13;;;;;;;2.43;1.47;;;;;;;10.30;99.13;99390.06;5003480;28;20212;-73
2024/02/07 01:17:40;;;;;;;5.77;1.50;;;;;;;10.27;99.74;99383.59;5004843;28;20222;-72
2024/02/07 01:20:09;;;;;;;2.40;1.97;;;;;;;10.28;99.45;99392.28;5004848;28;20203;-72
2024/02/07 01:22:35;;;;;;;2.00;1.60;;;;;;;10.27;98.98;99380.97;5004477;28;20220;-72
2024/02/07 01:25:02;;;;;;;1.73;1.60;;;;;;;10.26;99.53;99387.34;5003622;28;20213;-73
2024/02/07 01:27:28;;;;;;;2.00;1.20;;;;;;;10.26;100.00;99376.78;5001254;28;20657;-72
2024/02/07 01:29:56;;;;;;;1.67;1.43;;;;;;;10.22;100.00;99375.22;5004215;28;21427;-72
2024/02/07 01:32:23;;;;;;;2.67;1.50;;;;;;;10.18;100.00;99361.97;5005595;28;20410;-72
2024/02/07 01:34:50;;;;;;;2.50;1.83;;;;;;;10.13;100.00;99370.16;5007809;28;20201;-72
2024/02/07 01:37:16;;;;;;;2.53;1.40;;;;;;;10.09;100.00;99371.22;5002524;28;20228;-73
2024/02/07 01:39:43;;;;;;;3.20;1.60;;;;;;;10.07;100.00;99362.88;5005787;28;20796;-73
2024/02/07 01:42:09;;;;;;;2.73;1.63;;;;;;;10.05;100.00;99363.22;5002657;28;20206;-72
2024/02/07 01:44:37;;;;;;;6.00;2.17;;;;;;;10.03;100.00;99340.94;5005258;28;20197;-74
2024/02/07 01:47:13;;;;;;;2.10;1.50;;;;;;;10.03;100.00;99356.75;5006051;28;20220;-72
2024/02/07 01:49:41;;;;;;;2.13;1.50;;;;;;;10.01;100.00;99345.81;5004738;28;20283;-72
2024/02/07 01:52:10;;;;;;;3.40;1.40;;;;;;;10.01;100.00;99333.41;5004409;28;20203;-73
2024/02/07 01:54:38;;;;;;;5.20;1.77;;;;;;;10.00;100.00;99333.75;5002295;28;20657;-72
2024/02/07 01:57:06;;;;;;;5.33;1.63;;;;;;;10.00;100.00;99313.38;5004642;28;20214;-73
2024/02/07 01:59:34;;;;;;;2.53;1.50;;;;;;;10.01;100.00;99328.13;5004348;28;20220;-73
2024/02/07 02:02:00;;;;;;;3.63;2.17;;;;;;;10.01;100.00;99317.56;5004424;28;20214;-73
2024/02/07 02:04:29;;;;;;;4.90;1.90;;;;;;;10.02;100.00;99313.03;5005633;28;20202;-72
2024/02/07 02:06:55;;;;;;;5.40;1.90;;;;;;;10.01;100.00;99307.03;5006241;28;20328;-73
2024/02/07 02:09:21;;;;;;;1.60;1.50;;;;;;;10.02;100.00;99299.84;5005229;28;21158;-72
2024/02/07 02:11:51;;;;;;;4.10;1.70;;;;;;;10.03;100.00;99294.22;5002891;28;20579;-72
2024/02/07 02:14:19;;;;;;;4.53;1.70;;;;;;;10.03;100.00;99288.97;5005562;28;20204;-73
2024/02/07 02:16:45;;;;;;;2.40;1.70;;;;;;;10.06;100.00;99306.75;5006888;28;20977;-73
2024/02/07 02:19:11;;;;;;;3.30;1.80;;;;;;;10.08;100.00;99291.34;5005588;28;20685;-73
2024/02/07 02:21:59;;;;;;;3.37;1.50;;;;;;;10.10;100.00;99285.72;5004580;28;20702;-73
2024/02/07 02:24:41;;;;;;;4.03;1.90;;;;;;;10.10;100.00;99286.47;5004237;28;20204;-73
2024/02/07 02:27:28;;;;;;;3.43;2.13;;;;;;;10.15;100.00;99283.53;4998161;28;20221;-73
2024/02/07 02:29:58;;;;;;;4.43;1.80;;;;;;;10.16;100.00;99271.88;5017326;28;20227;-72
2024/02/07 02:32:27;;;;;;;5.13;1.70;;;;;;;10.18;100.00;99274.16;5002911;28;20299;-72
2024/02/07 02:34:54;;;;;;;2.53;1.93;;;;;;;10.18;100.00;99274.91;5005182;28;20192;-73
2024/02/07 02:37:21;;;;;;;10.60;1.80;;;;;;;10.21;100.00;99265.53;5006168;28;20677;-72
2024/02/07 02:39:51;;;;;;;5.83;1.87;;;;;;;10.20;100.00;99254.22;5005845;28;20218;-73
2024/02/07 02:46:15;;;;;;;5.50;2.00;;;;;;;10.27;100.00;99250.91;5002948;28;20296;-72
2024/02/07 02:48:41;;;;;;;4.53;2.00;;;;;;;10.28;100.00;99253.22;5015693;28;20208;-73
2024/02/07 02:51:08;;;;;;;2.90;1.90;;;;;;;10.29;98.98;99244.19;5003616;28;20571;-73
2024/02/07 02:53:34;;;;;;;4.70;1.73;;;;;;;10.31;98.94;99244.56;4998364;28;20209;-73
2024/02/07 02:56:03;;;;;;;4.53;1.97;;;;;;;10.33;98.74;99225.75;5002832;28;20201;-72
2024/02/07 02:58:30;;;;;;;3.03;1.73;;;;;;;10.34;100.00;99233.31;5010006;28;20212;-73
2024/02/07 03:00:57;;;;;;;2.43;1.70;;;;;;;10.35;99.69;99239.38;5006441;28;20255;-72
2024/02/07 03:03:26;;;;;;;2.30;1.87;;;;;;;10.37;99.52;99243.19;5006508;28;20616;-73
2024/02/07 03:05:58;;;;;;;2.63;1.80;;;;;;;10.38;99.43;99242.06;5007571;28;20198;-73
2024/02/07 03:08:39;;;;;;;3.00;2.00;;;;;;;10.39;100.00;99222.47;5007808;28;20202;-74
2024/02/07 03:11:06;;;;;;;4.00;1.90;;;;;;;10.39;98.26;99227.75;5021429;28;20208;-73
2024/02/07 03:13:34;;;;;;;6.30;2.00;;;;;;;10.41;99.11;99219.47;5006698;28;20210;-73
2024/02/07 03:16:02;;;;;;;4.57;2.13;;;;;;;10.43;99.23;99235.69;5012282;28;20232;-73
2024/02/07 03:18:29;;;;;;;3.00;1.73;;;;;;;10.42;99.60;99227.03;5007365;28;20208;-73
2024/02/07 03:20:56;;;;;;;2.27;1.80;;;;;;;10.45;99.04;99215.00;5008516;28;20207;-72
2024/02/07 03:23:22;;;;;;;5.23;1.80;;;;;;;10.45;99.84;99220.28;5008974;28;20209;-73
2024/02/07 03:25:49;;;;;;;3.17;2.03;;;;;;;10.43;99.52;99215.34;5008537;28;20692;-73
2024/02/07 03:28:16;;;;;;;4.53;2.03;;;;;;;10.41;100.00;99214.94;5023179;28;20648;-73
2024/02/07 03:30:42;;;;;;;2.77;1.83;;;;;;;10.38;100.00;99215.66;5005218;28;20211;-73
2024/02/07 03:33:09;;;;;;;3.33;1.77;;;;;;;10.38;100.00;99223.59;5008641;28;20203;-73
2024/02/07 03:35:37;;;;;;;5.27;2.43;;;;;;;10.34;100.00;99208.81;5008371;28;20207;-72
2024/02/07 03:38:04;;;;;;;3.83;2.20;;;;;;;10.32;100.00;99219.72;5003997;28;20242;-73
2024/02/07 03:40:31;;;;;;;4.33;2.30;;;;;;;10.32;100.00;99214.47;5005613;28;20201;-73
2024/02/07 03:42:58;;;;;;;5.30;2.17;;;;;;;10.30;100.00;99211.41;5006568;28;20208;-71
2024/02/07 03:45:25;;;;;;;6.47;2.17;;;;;;;10.30;100.00;99208.75;5006429;28;20204;-73
2024/02/07 03:47:52;;;;;;;5.80;1.93;;;;;;;10.28;100.00;99202.31;5008296;28;20222;-73
2024/02/07 03:50:25;;;;;;;7.43;2.20;;;;;;;10.26;100.00;99202.66;5006591;28;20197;-72
2024/02/07 03:52:52;;;;;;;7.13;2.13;;;;;;;10.29;100.00;99204.59;5008600;28;20666;-73
2024/02/07 03:55:19;;;;;;;3.33;2.20;;;;;;;10.28;100.00;99203.09;5008827;28;20707;-73
2024/02/07 03:57:45;;;;;;;4.33;2.40;;;;;;;10.27;100.00;99201.56;5009216;28;20221;-74
2024/02/07 04:00:13;;;;;;;5.57;1.97;;;;;;;10.28;100.00;99212.88;5006377;28;20226;-73
2024/02/07 04:02:40;;;;;;;3.53;2.37;;;;;;;10.26;100.00;99205.31;5005276;28;20202;-72
2024/02/07 04:05:08;;;;;;;4.50;1.90;;;;;;;10.27;100.00;99208.72;5007444;28;20575;-73
2024/02/07 04:07:35;;;;;;;6.37;2.50;;;;;;;10.27;100.00;99192.88;5003894;28;20223;-73
2024/02/07 04:10:04;;;;;;;2.37;1.60;;;;;;;10.26;100.00;99202.66;5037242;28;20202;-73
2024/02/07 05:17:20;;;;;;;0.60;0.60;;;;;;;7.94;100.00;99272.22;5009281;28;20229;-75
2024/02/07 05:19:47;;;;;;;0.60;0.60;;;;;;;7.77;100.00;99268.06;5005682;28;20222;-75
2024/02/07 05:22:13;;;;;;;0.30;0.30;;;;;;;7.59;100.00;99285.25;5007030;28;20198;-76
2024/02/07 05:24:41;;;;;;;0.40;0.40;;;;;;;7.45;100.00;99297.25;5006181;28;20197;-75
2024/02/07 05:27:10;;;;;;;0.40;0.40;;;;;;;7.35;100.00;99298.50;5006631;28;20232;-75
2024/02/07 05:29:36;;;;;;;1.00;0.40;;;;;;;7.20;100.00;99303.69;5005907;28;20201;-76
2024/02/07 05:32:04;;;;;;;0.40;0.40;;;;;;;7.08;100.00;99315.00;5006223;28;20201;-76
2024/02/07 05:34:30;;;;;;;0.37;0.37;;;;;;;6.87;100.00;99310.97;5007581;28;20189;-76
2024/02/07 05:36:58;;;;;;;0.97;0.33;;;;;;;6.77;100.00;99319.31;5010161;28;20209;-75
2024/02/07 05:39:26;;;;;;;1.03;0.40;;;;;;;6.61;100.00;99323.69;5007462;28;20577;-75
2024/02/07 05:41:52;;;;;;;0.20;0.20;;;;;;;6.57;100.00;99322.84;5008103;28;20203;-75
2024/02/07 05:44:18;;;;;;;0.20;0.20;;;;;;;6.44;100.00;99327.31;5011208;28;20218;-74
2024/02/07 05:46:45;;;;;;;0.20;0.20;;;;;;;6.38;100.00;99327.88;5010507;28;20224;-76
2024/02/07 05:49:14;;;;;;;0.73;0.30;;;;;;;6.32;100.00;99329.94;5007560;28;20197;-76
2024/02/07 05:51:41;;;;;;;1.33;0.30;;;;;;;6.23;100.00;99342.38;5002076;28;20640;-75
2024/02/07 05:54:07;;;;;;;0.40;0.30;;;;;;;6.16;100.00;99342.16;5008207;28;20207;-75
2024/02/07 05:56:34;;;;;;;1.60;0.30;;;;;;;6.13;100.00;99340.19;5008020;28;20558;-75
2024/02/07 05:59:00;;;;;;;0.67;0.27;;;;;;;6.08;100.00;99355.34;5008407;28;20209;-75
2024/02/07 06:01:27;;;;;;;0.33;0.27;;;;;;;6.06;100.00;99350.44;5009596;28;20787;-73
2024/02/07 06:03:53;;;;;;;0.20;0.20;;;;;;;6.04;100.00;99362.31;5007080;28;20205;-75
2024/02/07 06:06:22;;;;;;;0.30;0.30;;;;;;;6.01;100.00;99370.84;5021307;28;20315;-76
2024/02/07 06:08:50;;;;;;;0.30;0.30;;;;;;;6.00;100.00;99358.84;5004402;28;20302;-75
2024/02/07 06:11:16;;;;;;;0.40;0.40;;;;;;;5.99;100.00;99363.31;5003749;28;20695;-76
2024/02/07 06:13:43;;;;;;;0.30;0.30;;;;;;;5.98;100.00;99364.41;5006487;28;20230;-74
2024/02/07 06:16:09;;;;;;;1.30;0.30;;;;;;;5.96;100.00;99379.66;5007082;28;20262;-76
2024/02/07 06:18:36;;;;;;;0.40;0.40;;;;;;;5.94;100.00;99370.59;5008827;28;20204;-74
2024/02/07 06:21:02;;;;;;;0.37;0.37;;;;;;;5.85;100.00;99386.41;5013092;28;20200;-75
2024/02/07 06:23:30;;;;;;;1.83;0.40;;;;;;;5.80;100.00;99391.84;5008050;28;20261;-75
2024/02/07 06:25:57;;;;;;;1.07;0.30;;;;;;;5.74;100.00;99387.84;5007281;28;20196;-75
2024/02/07 06:28:24;;;;;;;1.13;0.30;;;;;;;5.70;100.00;99394.81;5022290;28;20655;-74
2024/02/07 06:30:50;;;;;;;2.03;0.40;;;;;;;5.57;100.00;99395.88;5007263;28;20243;-75
2024/02/07 06:33:16;;;;;;;0.27;0.27;;;;;;;5.49;100.00;99409.78;5036334;28;20719;-75
2024/02/07 06:35:43;;;;;;;1.53;0.30;;;;;;;5.43;100.00;99403.22;5009928;28;20241;-75
2024/02/07 06:38:09;;;;;;;0.43;0.43;;;;;;;5.34;100.00;99418.19;5009878;28;20217;-75
2024/02/07 06:40:37;;;;;;;0.40;0.40;;;;;;;5.24;100.00;99433.53;5006179;28;20320;-75
2024/02/07 06:43:04;;;;;;;0.37;0.37;;;;;;;5.15;100.00;99424.94;5023602;28;20217;-75
2024/02/07 06:45:31;;;;;;;2.80;0.40;;;;;;;5.05;100.00;99433.94;5010062;28;20197;-75
2024/02/07 06:47:57;;;;;;;0.40;0.30;;;;;;;4.98;100.00;99431.03;5009980;28;20223;-75
2024/02/07 06:50:24;;;;;;;2.53;0.47;;;;;;;4.87;100.00;99452.66;5008244;28;20195;-75
2024/02/07 06:52:50;;;;;;;1.63;0.40;;;;;;;4.76;100.00;99454.84;5014032;28;20270;-74
2024/02/07 06:55:18;;;;;;;3.57;0.57;;;;;;;4.68;100.00;99463.50;5009092;28;20595;-74
2024/02/07 06:57:46;;;;;;;6.27;0.70;;;;;;;4.60;100.00;99472.13;5022884;28;20739;-75
2024/02/07 07:00:14;;;;;;;4.50;0.57;;;;;;;4.52;100.00;99466.94;5009999;28;20718;-74
2024/02/07 07:02:40;;;;;;;1.23;0.50;;;;;;;4.49;100.00;99481.38;5006287;28;20203;-75
2024/02/07 07:05:07;;;;;;;2.37;0.40;;;;;;;4.42;100.00;99493.41;5008481;28;20190;-75
2024/02/07 07:07:33;;;;;;;4.20;0.60;;;;;;;4.37;100.00;99483.88;5020437;28;20220;-74
2024/02/07 07:10:00;;;;;;;1.03;0.40;;;;;;;4.34;100.00;99486.31;5006683;28;20196;-75
2024/02/07 07:12:26;;;;;;;1.93;0.50;;;;;;;4.28;100.00;99482.34;5006750;28;20205;-75
2024/02/07 07:14:54;;;;;;;3.50;0.50;;;;;;;4.24;100.00;99484.03;5007776;28;20197;-74
2024/02/07 07:17:20;;;;;;;1.63;0.40;;;;;;;4.20;100.00;99481.28;5014537;28;20219;-75
2024/02/07 07:19:46;;;;;;;5.47;0.60;;;;;;;4.19;100.00;99494.69;5007191;28;20216;-76
2024/02/07 07:22:13;;;;;;;0.53;0.47;;;;;;;4.17;100.00;99494.97;5009025;28;20196;-75
2024/02/07 07:24:39;;;;;;;2.50;0.40;;;;;;;4.10;100.00;99504.34;5007825;28;20205;-75
2024/02/07 07:27:06;;;;;;;2.70;0.53;;;;;;;4.09;100.00;99506.19;5007173;28;20224;-74
2024/02/07 07:29:32;;;;;;;4.90;0.60;;;;;;;4.08;100.00;99503.88;5009694;28;20201;-75
2024/02/07 07:32:00;;;;;;;0.80;0.50;;;;;;;4.05;100.00;99501.91;5012757;28;20192;-75
2024/02/07 07:34:26;;;;;;;1.57;0.37;;;;;;;4.03;100.00;99504.03;5006519;28;20223;-74
2024/02/07 07:36:53;;;;;;;1.47;0.70;;;;;;;3.99;100.00;99503.13;5005938;28;20212;-75
2024/02/07 07:39:20;;;;;;;3.87;0.93;;;;;;;3.96;100.00;99514.19;5007199;28;20408;-75
2024/02/07 07:41:46;;;;;;;2.33;0.70;;;;;;;3.93;100.00;99512.94;5008565;28;20208;-75
2024/02/07 07:44:13;;;;;;;3.73;0.63;;;;;;;3.88;100.00;99523.53;5011232;28;20220;-75
2024/02/07 07:46:40;;;;;;;2.03;0.57;;;;;;;3.86;100.00;99524.94;5016513;28;20228;-75
2024/02/07 07:49:08;;;;;;;4.70;1.80;;;;;;;3.84;100.00;99521.88;5011431;28;20204;-75
2024/02/07 07:51:34;;;;;;;4.73;0.97;;;;;;;3.83;100.00;99523.69;5009875;28;20206;-75
2024/02/07 07:54:00;;;;;;;2.60;2.00;;;;;;;3.79;100.00;99530.59;5014910;28;20204;-75
2024/02/07 07:56:30;;;;;;;1.97;0.90;;;;;;;3.78;100.00;99529.06;5010818;28;20223;-76
2024/02/07 07:58:57;;;;;;;3.47;0.50;;;;;;;3.74;100.00;99530.00;5013040;28;20657;-74
2024/02/07 08:01:23;;;;;;;3.10;0.60;;;;;;;3.74;100.00;99532.59;5025725;28;20204;-74
2024/02/07 08:03:50;;;;;;;1.93;0.63;;;;;;;3.74;100.00;99533.34;5010561;28;20216;-75
2024/02/07 08:06:18;;;;;;;2.87;0.70;;;;;;;3.71;100.00;99533.19;5013095;28;20268;-75
2024/02/07 08:08:44;;;;;;;5.17;1.07;;;;;;;3.71;100.00;99533.19;5010467;28;20201;-75
2024/02/07 08:11:11;;;;;;;0.70;0.40;;;;;;;3.70;100.00;99529.06;5013308;28;20226;-75
2024/02/07 08:13:37;;;;;;;3.97;1.63;;;;;;;3.69;100.00;99537.97;5010896;28;20549;-75
2024/02/07 08:16:04;;;;;;;4.07;0.90;;;;;;;3.70;100.00;99534.28;5010754;28;20498;-75
2024/02/07 08:18:31;;;;;;;0.70;0.50;;;;;;;3.69;100.00;99530.13;5012014;28;20239;-75
2024/02/07 08:20:57;;;;;;;1.80;0.50;;;;;;;3.71;100.00;99533.19;5009104;28;20679;-75
2024/02/07 08:23:26;;;;;;;0.63;0.60;;;;;;;3.70;100.00;99519.41;5009690;28;20200;-74
2024/02/07 08:25:52;;;;;;;1.60;0.60;;;;;;;3.71;100.00;99527.97;5011177;28;20200;-75
2024/02/07 08:28:18;;;;;;;0.80;0.60;;;;;;;3.72;100.00;99509.41;5011076;28;20300;-75
2024/02/07 08:30:45;;;;;;;1.33;0.80;;;;;;;3.74;100.00;99512.47;5004104;28;20212;-75
2024/02/07 08:33:11;;;;;;;2.40;0.70;;;;;;;3.75;100.00;99508.81;5011092;28;20200;-75
2024/02/07 08:35:38;;;;;;;4.27;0.60;;;;;;;3.75;100.00;99539.34;5010838;28;20204;-75
2024/02/07 08:38:04;;;;;;;3.33;0.50;;;;;;;3.77;100.00;99542.41;5009721;28;20232;-75
2024/02/07 08:40:32;;;;;;;2.83;0.70;;;;;;;3.78;100.00;99547.34;5011276;28;20500;-75
2024/02/07 08:43:00;;;;;;;2.10;0.63;;;;;;;3.80;100.00;99541.81;5006059;28;20205;-75
2024/02/07 08:45:26;;;;;;;4.90;0.70;;;;;;;3.82;100.00;99550.88;5004742;28;20263;-74
2024/02/07 08:47:53;;;;;;;1.03;0.70;;;;;;;3.83;100.00;99544.59;5011365;28;20592;-74
2024/02/07 08:50:19;;;;;;;4.47;0.70;;;;;;;3.86;100.00;99541.38;5013418;28;20222;-74
2024/02/07 08:52:46;;;;;;;2.73;0.67;;;;;;;3.90;100.00;99547.53;5009907;28;20216;-74
2024/02/07 08:55:13;;;;;;;8.93;0.90;;;;;;;3.93;100.00;99535.69;5008039;28;20209;-74
2024/02/07 08:57:41;;;;;;;6.77;0.90;;;;;;;3.97;100.00;99534.78;5011785;28;20224;-75
2024/02/07 09:00:09;;;;;;;3.63;0.50;;;;;;;4.00;100.00;99541.97;5014632;28;20212;-74
2024/02/07 09:02:36;;;;;;;1.27;0.43;;;;;;;4.01;100.00;99540.94;5011544;28;20204;-75
2024/02/07 09:05:04;;;;;;;1.13;0.83;;;;;;;4.07;100.00;99538.91;5011946;28;20214;-74
2024/02/07 09:07:30;;;;;;;1.07;0.60;;;;;;;4.10;100.00;99543.53;5006927;28;20224;-74
2024/02/07 09:09:57;;;;;;;2.93;1.00;;;;;;;4.09;100.00;99549.84;5008975;28;20211;-73
2024/02/07 09:12:23;;;;;;;8.63;1.23;;;;;;;4.10;100.00;99549.50;5004413;28;20201;-75
2024/02/07 09:14:52;;;;;;;1.50;0.50;;;;;;;4.14;100.00;99553.06;5009413;28;20611;-74
2024/02/07 09:17:18;;;;;;;3.37;1.20;;;;;;;4.16;100.00;99556.16;5008767;28;20250;-74
2024/02/07 09:19:44;;;;;;;6.60;1.30;;;;;;;4.19;100.00;99542.44;5007897;28;20225;-74
2024/02/07 09:22:10;;;;;;;3.33;1.53;;;;;;;4.22;100.00;99547.06;5010416;28;20212;-75
2024/02/07 09:24:37;;;;;;;5.67;2.00;;;;;;;4.24;100.00;99549.34;5011002;28;20209;-74
2024/02/07 09:27:03;;;;;;;3.27;1.50;;;;;;;4.27;100.00;99569.66;5010334;28;20220;-74
2024/02/07 09:29:30;;;;;;;11.30;2.37;;;;;;;4.30;100.00;99567.19;5010478;28;20204;-74
2024/02/07 09:31:58;;;;;;;6.53;2.23;;;;;;;4.35;100.00;99563.66;5005835;28;20219;-75
2024/02/07 09:34:24;;;;;;;4.80;1.30;;;;;;;4.37;100.00;99566.72;5012314;28;20549;-74
2024/02/07 09:36:51;;;;;;;5.87;1.90;;;;;;;4.41;100.00;99578.13;5007056;28;20225;-74
2024/02/07 09:39:19;;;;;;;9.83;1.87;;;;;;;4.41;100.00;99578.13;5006505;28;20250;-74
2024/02/07 09:41:47;;;;;;;7.40;1.10;;;;;;;4.39;100.00;99588.09;5007660;28;20221;-74
2024/02/07 09:44:17;;;;;;;4.43;1.20;;;;;;;4.39;100.00;99595.94;5008814;28;20232;-75
2024/02/07 09:46:44;;;;;;;4.77;1.30;;;;;;;4.39;100.00;99598.53;5011394;28;20340;-75
2024/02/07 09:49:15;;;;;;;2.23;1.03;;;;;;;4.40;100.00;99593.00;5006489;28;20568;-74
2024/02/07 09:51:42;;;;;;;6.30;1.20;;;;;;;4.35;100.00;99602.88;5011264;28;20674;-75
2024/02/07 09:54:11;;;;;;;3.30;1.00;;;;;;;4.36;100.00;99607.00;5007102;28;20288;-74
2024/02/07 09:56:38;;;;;;;1.57;1.10;;;;;;;4.33;100.00;99595.34;5010262;28;20223;-75
2024/02/07 09:59:05;;;;;;;7.33;1.20;;;;;;;4.33;100.00;99600.56;5008653;28;20225;-74
2024/02/07 10:01:33;;;;;;;6.00;1.13;;;;;;;4.30;100.00;99593.31;5008468;28;20226;-74
2024/02/07 10:04:02;;;;;;;3.53;1.40;;;;;;;4.29;100.00;99596.22;5012236;28;20197;-75
2024/02/07 10:06:30;;;;;;;4.77;2.10;;;;;;;4.27;100.00;99601.00;5011204;28;20308;-74
2024/02/07 10:08:57;;;;;;;5.63;2.87;;;;;;;4.24;100.00;99605.00;5009838;28;20240;-75
2024/02/07 10:11:25;;;;;;;3.53;2.00;;;;;;;4.23;100.00;99600.06;5007165;28;20208;-75
2024/02/07 10:13:51;;;;;;;4.20;1.20;;;;;;;4.25;100.00;99595.34;5010442;28;20255;-74
2024/02/07 10:16:18;;;;;;;2.00;1.20;;;;;;;4.25;100.00;99606.53;5007604;28;20223;-74
2024/02/07 10:18:47;;;;;;;5.40;1.30;;;;;;;4.26;100.00;99613.28;5005764;28;20281;-74
2024/02/07 10:21:13;;;;;;;3.07;1.50;;;;;;;4.29;100.00;99609.28;5004688;28;20304;-74
2024/02/07 10:23:42;;;;;;;2.77;1.33;;;;;;;4.30;100.00;99605.63;5006449;28;20209;-74
2024/02/07 10:26:10;;;;;;;3.50;1.50;;;;;;;4.33;100.00;99611.00;5008627;28;20711;-74
2024/02/07 10:28:37;;;;;;;5.20;1.50;;;;;;;4.29;100.00;99615.31;5006238;28;20231;-74
2024/02/07 10:31:05;;;;;;;5.13;1.73;;;;;;;4.33;100.00;99618.84;5022416;28;20188;-73
2024/02/07 10:33:35;;;;;;;5.27;1.50;;;;;;;4.35;100.00;99623.78;5009859;28;20281;-74
2024/02/07 10:36:02;;;;;;;4.27;1.50;;;;;;;4.37;100.00;99622.38;5007048;28;20200;-74
2024/02/07 10:38:29;;;;;;;5.83;1.97;;;;;;;4.39;100.00;99624.69;5009923;28;20199;-74
2024/02/07 10:40:57;;;;;;;3.97;1.23;;;;;;;4.40;100.00;99621.00;5010519;28;20224;-74
2024/02/07 10:43:27;;;;;;;8.60;2.20;;;;;;;4.41;100.00;99623.28;5006286;28;20204;-73
2024/02/07 10:46:01;;;;;;;2.37;1.10;;;;;;;4.42;100.00;99629.31;5005468;28;20207;-74
2024/02/07 10:48:28;;;;;;;5.50;1.40;;;;;;;4.40;100.00;99637.44;5004510;28;20209;-74
2024/02/07 10:50:56;;;;;;;8.30;1.50;;;;;;;4.40;100.00;99629.59;5007811;28;20208;-75
2024/02/07 10:53:22;;;;;;;4.30;1.30;;;;;;;4.41;100.00;99638.22;5008327;28;20198;-75
2024/02/07 10:55:49;;;;;;;5.97;1.30;;;;;;;4.42;100.00;99639.75;5008199;28;20284;-74
2024/02/07 10:58:22;;;;;;;6.43;1.60;;;;;;;4.40;100.00;99637.44;5007401;28;20614;-74
2024/02/07 11:00:51;;;;;;;3.07;1.80;;;;;;;4.42;100.00;99634.53;5007318;28;20847;-75
2024/02/07 11:03:18;;;;;;;3.87;1.30;;;;;;;4.41;100.00;99636.34;5005279;28;20207;-74
2024/02/07 11:05:44;;;;;;;6.70;1.80;;;;;;;4.43;100.00;99631.63;5003243;28;20193;-74
2024/02/07 11:08:11;;;;;;;3.53;1.40;;;;;;;4.43;100.00;99639.44;5004287;28;20233;-74
2024/02/07 11:10:39;;;;;;;5.27;1.30;;;;;;;4.40;100.00;99640.06;5006737;28;20199;-74
2024/02/07 11:13:05;;;;;;;3.17;1.50;;;;;;;4.45;100.00;99637.28;5005439;28;20217;-75
2024/02/07 11:15:34;;;;;;;6.07;1.50;;;;;;;4.46;100.00;99638.06;5008998;28;20321;-74
2024/02/07 11:18:01;;;;;;;6.20;2.00;;;;;;;4.47;100.00;99640.38;5009882;28;20240;-74
2024/02/07 11:20:28;;;;;;;5.03;1.50;;;;;;;4.50;100.00;99644.97;5008647;28;20493;-74
2024/02/07 11:22:57;;;;;;;2.90;1.67;;;;;;;4.55;100.00;99644.81;5023726;28;20209;-75
2024/02/07 11:25:26;;;;;;;6.03;1.83;;;;;;;4.56;100.00;99650.84;5011643;28;20197;-75
2024/02/07 11:27:55;;;;;;;3.63;1.50;;;;;;;4.56;100.00;99646.34;5010277;28;20222;-74
2024/02/07 11:30:22;;;;;;;4.13;1.80;;;;;;;4.60;100.00;99638.66;5030013;28;20290;-74
2024/02/07 11:32:52;;;;;;;5.80;1.90;;;;;;;4.61;100.00;99643.59;5008923;28;20196;-74
2024/02/07 11:35:20;;;;;;;3.47;1.70;;;;;;;4.65;100.00;99648.97;5008751;28;20290;-75
2024/02/07 11:37:49;;;;;;;5.80;2.00;;;;;;;4.66;100.00;99645.31;5008591;28;20228;-75
2024/02/07 11:40:17;;;;;;;4.00;1.70;;;;;;;4.68;100.00;99643.13;5008850;28;20208;-75
2024/02/07 11:42:43;;;;;;;5.80;2.03;;;;;;;4.71;100.00;99651.13;5010293;28;20219;-75
2024/02/07 11:45:12;;;;;;;3.53;2.03;;;;;;;4.74;100.00;99649.75;5007452;28;20198;-74
2024/02/07 11:47:42;;;;;;;14.27;2.40;;;;;;;4.74;100.00;99653.13;5005289;28;20303;-74
2024/02/07 11:50:15;;;;;;;9.40;2.53;;;;;;;4.80;100.00;99649.28;5007561;28;20276;-74
2024/02/07 11:52:43;;;;;;;8.37;2.57;;;;;;;4.86;100.00;99649.88;5008138;28;20559;-75
2024/02/07 11:55:11;;;;;;;8.80;2.80;;;;;;;4.94;100.00;99647.28;5008320;28;20258;-74
2024/02/07 11:57:41;;;;;;;7.00;2.40;;;;;;;5.03;100.00;99653.22;5013211;28;20705;-75
2024/02/07 12:00:12;;;;;;;5.30;2.87;;;;;;;5.08;100.00;99649.69;5011352;28;20223;-75
2024/02/07 12:02:39;;;;;;;7.50;2.20;;;;;;;5.13;100.00;99645.06;5007441;28;20200;-73
2024/02/07 12:05:13;;;;;;;8.37;3.20;;;;;;;5.15;100.00;99648.16;5009128;28;20200;-73
2024/02/07 12:07:42;;;;;;;8.33;2.57;;;;;;;5.15;100.00;99642.91;5008629;28;20223;-73
2024/02/07 12:10:09;;;;;;;5.33;2.27;;;;;;;5.11;100.00;99642.00;5007873;28;20188;-75
2024/02/07 12:12:35;;;;;;;5.90;2.13;;;;;;;5.12;100.00;99637.53;5009516;28;20199;-75
2024/02/07 12:15:02;;;;;;;7.47;2.33;;;;;;;5.11;100.00;99638.59;5006467;28;20205;-75
2024/02/07 12:17:28;;;;;;;8.53;2.60;;;;;;;5.11;100.00;99641.22;5023072;28;20336;-75
2024/02/07 12:19:57;;;;;;;7.90;2.27;;;;;;;5.08;100.00;99647.09;5006691;28;20759;-73
2024/02/07 12:22:23;;;;;;;4.83;2.13;;;;;;;5.07;100.00;99638.47;5007166;28;20302;-74
2024/02/07 12:24:52;;;;;;;7.40;2.30;;;;;;;5.07;100.00;99628.00;5011976;28;20203;-74
2024/02/07 12:27:18;;;;;;;7.93;2.20;;;;;;;5.03;100.00;99642.75;5008970;28;20223;-73
2024/02/07 12:29:49;;;;;;;7.00;2.13;;;;;;;5.02;100.00;99653.56;5006751;28;20872;-75
2024/02/07 12:32:16;;;;;;;8.10;2.43;;;;;;;4.98;100.00;99661.25;5003963;28;20640;-74
2024/02/07 12:34:42;;;;;;;9.60;4.70;;;;;;;4.95;100.00;99674.97;5004080;28;20219;-74
2024/02/07 12:37:10;;;;;;;7.60;3.10;;;;;;;4.94;100.00;99678.66;5012414;28;20223;-75
2024/02/07 12:39:37;;;;;;;5.57;2.30;;;;;;;4.89;100.00;99680.66;5007841;28;20537;-74
2024/02/07 12:42:06;;;;;;;3.63;2.80;;;;;;;4.86;100.00;99676.03;5003956;28;20220;-74